Time;durP1;ratioP1;P1;durP2;ratioP2;P2;SDS_P1;SDS_P2;PMS_P1;PMS_P2;Temp;Humidity;BMP_temperature;BMP_pressure;BME280_temperature;BME280_humidity;BME280_pressure;Samples;Min_cycle;Max_cycle;Signal;HPM_P1;HPM_P2
2022/10/06 00:00:12;;;;;;;7.32;1.40;;;;;;;17.81;55.15;102055.00;4942458;28;124013;-72
2022/10/06 00:02:39;;;;;;;8.15;1.52;;;;;;;17.78;54.91;102061.41;4949610;28;114639;-72
2022/10/06 00:05:06;;;;;;;8.52;1.60;;;;;;;17.77;54.52;102064.16;4957201;28;113660;-72
2022/10/06 00:07:35;;;;;;;5.40;1.73;;;;;;;17.74;54.78;102075.91;4968769;28;123940;-73
2022/10/06 00:10:03;;;;;;;7.80;1.55;;;;;;;17.71;54.63;102082.31;4951139;28;122033;-73
2022/10/06 00:12:42;;;;;;;7.68;1.30;;;;;;;17.68;54.63;102087.81;4966318;28;114648;-72
2022/10/06 00:15:10;;;;;;;10.02;1.60;;;;;;;17.67;54.49;102090.63;4967977;28;114057;-72
2022/10/06 00:17:38;;;;;;;6.47;1.38;;;;;;;17.65;54.54;102098.72;4946306;28;122973;-72
2022/10/06 00:20:07;;;;;;;7.75;1.38;;;;;;;17.61;54.83;102093.59;4950779;28;123762;-72
2022/10/06 00:22:41;;;;;;;7.38;1.58;;;;;;;17.58;54.72;102102.69;4968867;28;114125;-72
2022/10/06 00:25:09;;;;;;;6.00;1.20;;;;;;;17.54;55.02;102111.84;4949616;28;113512;-72
2022/10/06 00:27:39;;;;;;;5.43;1.20;;;;;;;17.50;54.89;102118.31;4947374;28;123903;-72
2022/10/06 00:30:10;;;;;;;7.55;1.30;;;;;;;17.48;55.00;102117.53;4968398;28;124074;-72
2022/10/06 00:32:38;;;;;;;5.82;1.40;;;;;;;17.46;55.20;102119.41;4938832;28;115465;-72
2022/10/06 00:35:06;;;;;;;8.63;1.55;;;;;;;17.43;55.37;102124.94;4965805;28;115541;-72
2022/10/06 00:37:36;;;;;;;5.20;1.30;;;;;;;17.41;55.35;102137.56;4950012;28;123350;-72
2022/10/06 00:40:08;;;;;;;7.22;1.60;;;;;;;17.38;55.42;102135.03;4950027;28;124831;-72
2022/10/06 00:42:58;;;;;;;10.13;1.73;;;;;;;17.32;55.59;102134.41;4948023;28;113341;-72
2022/10/06 00:45:32;;;;;;;9.13;1.40;;;;;;;17.27;55.43;102152.53;4964086;28;114265;-72
2022/10/06 00:48:04;;;;;;;9.00;1.70;;;;;;;17.24;55.56;102141.97;4967062;28;125209;-72
2022/10/06 00:50:32;;;;;;;7.35;1.35;;;;;;;17.23;55.45;102156.31;4969164;28;123656;-72
2022/10/06 00:52:59;;;;;;;5.78;1.60;;;;;;;17.22;55.50;102159.94;4961229;28;114629;-72
2022/10/06 00:55:26;;;;;;;9.15;1.58;;;;;;;17.19;55.45;102160.09;4950692;28;112431;-73
2022/10/06 00:57:54;;;;;;;9.30;1.58;;;;;;;17.17;55.26;102167.34;4970308;28;124137;-72
2022/10/06 01:00:21;;;;;;;8.57;1.92;;;;;;;17.16;55.19;102165.63;4952806;28;123925;-73
2022/10/06 01:02:56;;;;;;;9.93;1.50;;;;;;;17.12;55.17;102169.38;4971110;28;113971;-72
2022/10/06 01:05:34;;;;;;;10.25;1.58;;;;;;;17.09;55.11;102170.41;4952681;28;114191;-72
2022/10/06 01:08:01;;;;;;;9.35;1.70;;;;;;;17.09;55.09;102169.56;4953270;28;123759;-72
2022/10/06 01:10:28;;;;;;;6.63;1.70;;;;;;;17.06;55.15;102180.41;4945626;28;123410;-72
2022/10/06 01:12:56;;;;;;;6.65;1.63;;;;;;;17.05;55.21;102184.91;4952134;28;114693;-72
2022/10/06 01:15:25;;;;;;;6.72;1.80;;;;;;;17.04;55.03;102187.66;4957825;28;114003;-72
2022/10/06 01:18:04;;;;;;;8.00;1.80;;;;;;;17.02;55.06;102193.09;4953739;28;123606;-72
2022/10/06 01:20:33;;;;;;;11.07;1.80;;;;;;;17.01;55.13;102193.16;4968534;28;123543;-72
2022/10/06 01:23:07;;;;;;;7.97;1.70;;;;;;;16.98;55.01;102198.69;4937289;28;114017;-72
2022/10/06 01:25:35;;;;;;;8.98;1.75;;;;;;;16.97;55.08;102207.63;4953149;28;114006;-72
2022/10/06 01:28:05;;;;;;;10.15;1.67;;;;;;;16.95;55.03;102212.22;4970836;28;124211;-73
2022/10/06 01:30:40;;;;;;;7.68;1.38;;;;;;;16.92;55.20;102216.78;4949005;28;123049;-72
2022/10/06 01:33:07;;;;;;;13.35;1.92;;;;;;;16.91;55.27;102225.75;4961299;28;113425;-72
2022/10/06 01:35:34;;;;;;;6.45;1.40;;;;;;;16.90;55.26;102225.84;4943687;28;112596;-72
2022/10/06 01:38:02;;;;;;;10.23;1.75;;;;;;;16.89;55.42;102222.25;4970100;28;123913;-72
2022/10/06 01:40:29;;;;;;;11.40;1.75;;;;;;;16.87;55.49;102234.84;4953441;28;123246;-73
2022/10/06 01:42:59;;;;;;;11.95;1.92;;;;;;;16.86;55.43;102240.31;4952683;28;114861;-72
2022/10/06 01:45:27;;;;;;;9.05;1.60;;;;;;;16.85;55.73;102244.78;4945408;28;113327;-72
2022/10/06 01:47:54;;;;;;;10.48;1.80;;;;;;;16.84;55.53;102235.03;4946798;28;124742;-72
2022/10/06 01:50:21;;;;;;;7.97;1.52;;;;;;;16.85;55.65;102236.75;4952622;28;124652;-72
2022/10/06 01:52:48;;;;;;;10.23;1.60;;;;;;;16.84;55.56;102240.38;4950085;28;113471;-73
2022/10/06 01:55:16;;;;;;;7.93;1.70;;;;;;;16.84;55.45;102245.72;4958061;28;112939;-72
2022/10/06 01:57:43;;;;;;;8.23;1.50;;;;;;;16.83;55.53;102253.81;4938645;28;124198;-72
2022/10/06 02:00:12;;;;;;;8.10;1.50;;;;;;;16.79;55.55;102241.50;4953252;28;123299;-72
2022/10/06 02:02:41;;;;;;;5.95;1.58;;;;;;;16.78;55.62;102255.81;4934541;28;113464;-72
2022/10/06 02:05:08;;;;;;;9.45;1.67;;;;;;;16.75;55.69;102256.84;4959402;28;113993;-73
2022/10/06 02:07:39;;;;;;;8.18;1.60;;;;;;;16.73;55.60;102253.38;4952601;28;122967;-72
2022/10/06 02:10:06;;;;;;;5.75;1.40;;;;;;;16.72;55.80;102262.34;4952654;28;123057;-72
2022/10/06 02:12:34;;;;;;;10.95;1.83;;;;;;;16.69;55.51;102275.88;4951894;28;115603;-72
2022/10/06 02:15:01;;;;;;;7.35;1.40;;;;;;;16.67;55.58;102278.63;4952233;28;113786;-72
2022/10/06 02:17:28;;;;;;;8.77;1.65;;;;;;;16.66;55.58;102276.00;4969932;28;123018;-72
2022/10/06 02:19:55;;;;;;;7.75;1.58;;;;;;;16.65;55.63;102282.28;4951479;28;124088;-72
2022/10/06 02:22:22;;;;;;;8.85;1.65;;;;;;;16.61;55.46;102275.34;4952319;28;114130;-72
2022/10/06 02:24:50;;;;;;;9.07;1.63;;;;;;;16.60;55.56;102284.34;4952480;28;113347;-72
2022/10/06 02:27:17;;;;;;;8.65;1.50;;;;;;;16.57;55.65;102295.19;4952134;28;123660;-72
2022/10/06 02:29:44;;;;;;;8.23;1.60;;;;;;;16.53;55.67;102292.63;4951964;28;123001;-72
2022/10/06 02:32:12;;;;;;;8.63;1.58;;;;;;;16.51;55.73;102307.88;4945770;28;112768;-72
2022/10/06 02:34:40;;;;;;;9.15;1.50;;;;;;;16.49;55.61;102309.75;4956878;28;114141;-72
2022/10/06 02:37:07;;;;;;;9.13;1.75;;;;;;;16.47;55.83;102310.78;4955440;28;124499;-72
2022/10/06 02:39:34;;;;;;;9.60;1.77;;;;;;;16.45;55.71;102313.53;4951925;28;123934;-72
2022/10/06 02:42:03;;;;;;;9.20;1.60;;;;;;;16.44;55.71;102311.78;4952169;28;113260;-73
2022/10/06 02:44:30;;;;;;;6.45;1.80;;;;;;;16.43;55.64;102310.06;4936188;28;113473;-72
2022/10/06 02:46:58;;;;;;;11.00;2.03;;;;;;;16.41;55.69;102316.44;4951742;28;123477;-73
2022/10/06 02:49:25;;;;;;;10.10;1.65;;;;;;;16.39;55.63;102324.50;4940201;28;123070;-72
2022/10/06 02:51:52;;;;;;;9.15;1.70;;;;;;;16.37;55.80;102326.41;4939796;28;113198;-73
2022/10/06 02:54:20;;;;;;;8.25;2.00;;;;;;;16.35;55.68;102328.28;4966817;28;114430;-72
2022/10/06 02:56:49;;;;;;;13.45;2.00;;;;;;;16.33;55.79;102328.34;4969461;28;124899;-72
2022/10/06 02:59:16;;;;;;;10.95;1.88;;;;;;;16.32;55.77;102341.78;4949300;28;123579;-72
2022/10/06 03:01:43;;;;;;;10.40;1.83;;;;;;;16.29;55.84;102344.56;4940315;28;114463;-72
2022/10/06 03:04:15;;;;;;;12.30;1.98;;;;;;;16.28;55.77;102348.19;4951695;28;114233;-72
2022/10/06 03:06:42;;;;;;;10.38;1.77;;;;;;;16.26;55.63;102355.44;4952156;28;123020;-72
2022/10/06 03:09:18;;;;;;;12.52;2.10;;;;;;;16.23;55.68;102361.75;4950208;28;123794;-73
2022/10/06 03:11:45;;;;;;;9.40;1.92;;;;;;;16.21;55.54;102360.09;4948878;28;113944;-72
2022/10/06 03:14:33;;;;;;;11.35;2.20;;;;;;;16.19;55.58;102359.31;4932446;28;113834;-72
2022/10/06 03:17:00;;;;;;;9.20;1.83;;;;;;;16.17;55.54;102366.53;4940254;28;123824;-72
2022/10/06 03:19:28;;;;;;;10.98;1.90;;;;;;;16.13;55.64;102374.66;4935284;28;123320;-73
2022/10/06 03:21:56;;;;;;;9.55;2.05;;;;;;;16.13;55.64;102382.69;4938640;28;114020;-72
2022/10/06 03:24:31;;;;;;;;;;;;;;;16.10;55.57;102382.81;4952334;28;114163;-73
2022/10/06 03:26:59;;;;;;;14.25;2.20;;;;;;;16.09;55.53;102375.75;4936957;28;123524;-73
2022/10/06 03:29:29;;;;;;;12.02;2.17;;;;;;;16.06;55.42;102391.91;4951255;28;123062;-72
2022/10/06 03:31:57;;;;;;;10.45;1.80;;;;;;;16.04;55.63;102387.56;4921998;28;113737;-72
2022/10/06 03:34:24;;;;;;;9.07;1.83;;;;;;;16.03;55.62;102397.41;4931777;28;113724;-72
2022/10/06 03:36:53;;;;;;;12.73;2.17;;;;;;;16.02;55.67;102390.31;4951579;28;123157;-72
2022/10/06 03:39:22;;;;;;;8.18;2.03;;;;;;;16.00;55.49;102400.19;4935678;28;123055;-72
2022/10/06 03:41:50;;;;;;;7.55;1.75;;;;;;;15.98;55.53;102404.72;4931857;28;114520;-72
2022/10/06 03:44:20;;;;;;;14.80;2.22;;;;;;;15.95;55.67;102410.19;4944556;28;112428;-72
2022/10/06 03:46:48;;;;;;;11.45;2.20;;;;;;;15.92;55.67;102415.69;4934297;28;124207;-72
2022/10/06 03:49:15;;;;;;;9.38;2.20;;;;;;;15.89;55.74;102416.66;4950628;28;123092;-72
2022/10/06 03:51:42;;;;;;;6.72;2.00;;;;;;;15.86;55.84;102416.81;4950101;28;114180;-72
2022/10/06 03:54:14;;;;;;;10.10;2.25;;;;;;;15.84;55.75;102420.47;4951585;28;114119;-72
2022/10/06 03:56:45;;;;;;;8.68;1.90;;;;;;;15.80;55.87;102422.41;4948074;28;123246;-72
2022/10/06 03:59:15;;;;;;;12.60;2.25;;;;;;;15.77;55.88;102428.75;4946027;28;123510;-72
2022/10/06 04:01:46;;;;;;;9.43;2.20;;;;;;;15.76;55.96;102432.38;4951459;28;113679;-72
2022/10/06 04:04:17;;;;;;;10.65;2.20;;;;;;;15.73;56.06;102434.25;4937548;28;114268;-72
2022/10/06 04:06:48;;;;;;;10.50;2.15;;;;;;;15.70;56.15;102445.94;4951342;28;123540;-72
2022/10/06 04:09:18;;;;;;;8.32;2.10;;;;;;;15.67;56.06;102454.09;4937574;28;123307;-73
2022/10/06 04:11:46;;;;;;;17.50;2.38;;;;;;;15.67;56.11;102464.78;4951496;28;113471;-72
2022/10/06 04:14:15;;;;;;;7.18;1.90;;;;;;;15.65;56.13;102463.97;4968089;28;114279;-72
2022/10/06 04:16:44;;;;;;;9.93;2.05;;;;;;;15.62;56.18;102461.41;4944917;28;123689;-72
2022/10/06 04:19:15;;;;;;;10.73;1.70;;;;;;;15.58;56.17;102470.47;4930138;28;123391;-72
2022/10/06 04:21:46;;;;;;;9.68;1.88;;;;;;;15.57;56.22;102469.59;4937508;28;114088;-73
2022/10/06 04:24:17;;;;;;;11.75;2.15;;;;;;;15.54;56.26;102474.22;4960091;28;113356;-72
2022/10/06 04:26:51;;;;;;;8.95;2.25;;;;;;;15.51;56.21;102480.53;4927195;28;123617;-73
2022/10/06 04:29:19;;;;;;;11.32;2.10;;;;;;;15.47;56.40;102486.06;4953790;28;123137;-72
2022/10/06 04:31:56;;;;;;;9.93;2.13;;;;;;;15.45;56.49;102485.25;4955050;28;114279;-72
2022/10/06 04:34:29;;;;;;;10.15;2.00;;;;;;;15.38;56.77;102480.13;4940533;28;113773;-72
2022/10/06 04:36:57;;;;;;;9.43;2.05;;;;;;;15.37;56.50;102489.09;4971367;28;124428;-72
2022/10/06 04:39:24;;;;;;;11.25;2.03;;;;;;;15.34;56.65;102491.84;4940280;28;124042;-72
2022/10/06 04:41:51;;;;;;;9.82;1.85;;;;;;;15.31;56.69;102500.00;4953381;28;114509;-72
2022/10/06 04:44:22;;;;;;;11.95;2.42;;;;;;;15.29;56.76;102496.50;4954218;28;114393;-72
2022/10/06 04:46:51;;;;;;;8.85;1.98;;;;;;;15.28;56.75;102502.78;4933640;28;124298;-72
2022/10/06 04:49:19;;;;;;;16.90;2.38;;;;;;;15.27;56.73;102514.38;4944637;28;123735;-72
2022/10/06 04:51:50;;;;;;;11.10;2.38;;;;;;;15.25;56.71;102510.91;4939709;28;113787;-72
2022/10/06 04:54:18;;;;;;;13.32;2.20;;;;;;;15.24;56.75;102502.94;4954236;28;113355;-73
2022/10/06 04:56:47;;;;;;;14.10;2.75;;;;;;;15.22;56.89;102516.38;4951634;28;123571;-72
2022/10/06 04:59:15;;;;;;;10.38;2.00;;;;;;;15.19;56.88;102521.81;4949347;28;123175;-73
2022/10/06 05:01:44;;;;;;;10.10;2.45;;;;;;;15.16;56.96;102522.81;4970695;28;113218;-72
2022/10/06 05:04:13;;;;;;;11.70;2.10;;;;;;;15.14;56.94;102518.44;4938383;28;113770;-72
2022/10/06 05:06:41;;;;;;;14.90;2.67;;;;;;;15.14;57.02;102531.78;4971918;28;126199;-72
2022/10/06 05:09:14;;;;;;;13.15;2.72;;;;;;;15.13;57.00;102532.72;4957426;28;122983;-72
2022/10/06 05:11:48;;;;;;;9.93;2.10;;;;;;;15.10;57.00;102543.50;4950659;28;113808;-72
2022/10/06 05:14:18;;;;;;;12.43;2.35;;;;;;;15.08;56.85;102540.03;4963965;28;113120;-72
2022/10/06 05:16:48;;;;;;;10.77;2.38;;;;;;;15.06;56.94;102541.88;4957499;28;124512;-72
2022/10/06 05:19:15;;;;;;;10.43;2.20;;;;;;;15.04;57.17;102546.41;4963950;28;123366;-72
2022/10/06 05:21:42;;;;;;;10.88;2.33;;;;;;;15.01;57.04;102559.84;4956932;28;114451;-72
2022/10/06 05:24:14;;;;;;;13.88;2.42;;;;;;;14.98;57.05;102560.84;4951394;28;113535;-72
2022/10/06 05:26:42;;;;;;;11.65;2.08;;;;;;;14.96;57.16;102563.56;4952701;28;123008;-72
2022/10/06 05:29:12;;;;;;;13.93;2.20;;;;;;;14.95;57.21;102572.47;4952901;28;123593;-72
2022/10/06 05:31:41;;;;;;;10.27;2.47;;;;;;;14.93;57.19;102574.31;4952049;28;114409;-72
2022/10/06 05:34:10;;;;;;;14.10;2.53;;;;;;;14.90;57.21;102573.56;4952471;28;114170;-72
2022/10/06 05:36:37;;;;;;;8.65;2.08;;;;;;;14.88;57.20;102573.66;4951660;28;123363;-72
2022/10/06 05:39:06;;;;;;;16.58;2.70;;;;;;;14.85;57.13;102576.41;4969279;28;124098;-72
2022/10/06 05:41:42;;;;;;;14.30;2.72;;;;;;;14.83;57.11;102578.25;4952061;28;113976;-72
2022/10/06 05:44:10;;;;;;;11.85;2.67;;;;;;;14.79;57.22;102584.63;4953016;28;114021;-72
2022/10/06 05:46:39;;;;;;;11.43;2.50;;;;;;;14.78;57.28;102598.88;4947597;28;123230;-72
2022/10/06 05:49:09;;;;;;;12.88;2.13;;;;;;;14.75;57.38;102607.00;4943449;28;122933;-73
2022/10/06 05:51:39;;;;;;;13.20;2.35;;;;;;;14.73;57.35;102603.50;4952940;28;113646;-72
2022/10/06 05:54:27;;;;;;;12.38;2.85;;;;;;;14.70;57.45;102614.28;4953205;28;112949;-72
2022/10/06 05:56:54;;;;;;;13.35;2.60;;;;;;;14.69;57.42;102612.53;4966687;28;124454;-71
2022/10/06 05:59:21;;;;;;;10.82;2.70;;;;;;;14.67;57.33;102619.72;4948910;28;122220;-73
2022/10/06 06:01:50;;;;;;;11.45;2.30;;;;;;;14.65;57.41;102622.44;4951850;28;114272;-73
2022/10/06 06:04:26;;;;;;;12.38;2.55;;;;;;;14.64;57.51;102625.16;4951743;28;113258;-72
2022/10/06 06:06:55;;;;;;;13.80;2.65;;;;;;;14.63;57.37;102631.41;4942715;28;123419;-73
2022/10/06 06:09:25;;;;;;;12.32;2.17;;;;;;;14.62;57.38;102632.31;4931595;28;123370;-72
2022/10/06 06:11:54;;;;;;;15.45;2.60;;;;;;;14.60;57.35;102635.94;4953483;28;114011;-72
2022/10/06 06:17:16;;;;;;;11.40;1.67;;;;;;;14.58;57.34;102643.09;4950380;28;123149;-73
2022/10/06 06:19:43;;;;;;;16.73;2.65;;;;;;;14.57;57.42;102646.69;4951950;28;124142;-72
2022/10/06 06:22:10;;;;;;;14.85;2.30;;;;;;;14.56;57.61;102654.69;4949658;28;114936;-73
2022/10/06 06:24:40;;;;;;;11.05;2.20;;;;;;;14.56;57.50;102660.91;4941341;28;114534;-73
2022/10/06 06:27:08;;;;;;;12.07;2.38;;;;;;;14.55;57.62;102659.16;4950539;28;123379;-73
2022/10/06 06:29:36;;;;;;;13.93;2.55;;;;;;;14.55;57.54;102664.50;4950557;28;124512;-73
2022/10/06 06:32:03;;;;;;;19.75;2.90;;;;;;;14.55;57.61;102667.16;4961808;28;113516;-73
2022/10/06 06:34:30;;;;;;;14.05;2.72;;;;;;;14.57;57.89;102661.81;4952466;28;114342;-72
2022/10/06 06:36:57;;;;;;;11.75;2.60;;;;;;;14.59;57.79;102670.63;4951486;28;124005;-73
2022/10/06 06:39:33;;;;;;;14.60;2.45;;;;;;;14.63;57.83;102660.75;4951637;28;123940;-73
2022/10/06 06:42:01;;;;;;;15.05;2.50;;;;;;;14.70;57.79;102672.97;4952509;28;113332;-72
2022/10/06 06:44:38;;;;;;;10.40;2.38;;;;;;;14.77;57.94;102685.19;4968689;28;114395;-73
2022/10/06 06:47:12;;;;;;;10.95;2.63;;;;;;;14.84;57.80;102678.69;4951751;28;123087;-72
2022/10/06 06:49:41;;;;;;;10.90;2.72;;;;;;;14.91;57.75;102682.91;4970421;28;123984;-73
2022/10/06 06:52:08;;;;;;;14.63;2.55;;;;;;;14.98;57.70;102689.78;4945807;28;113467;-72
2022/10/06 06:54:39;;;;;;;16.85;3.10;;;;;;;15.06;57.45;102696.66;4945347;28;113410;-72
2022/10/06 06:57:10;;;;;;;11.50;2.78;;;;;;;15.11;57.39;102694.72;4951716;28;123497;-72
2022/10/06 06:59:38;;;;;;;11.27;2.30;;;;;;;15.16;57.53;102698.06;4951441;28;123051;-72
2022/10/06 07:02:08;;;;;;;12.95;2.30;;;;;;;15.23;57.00;102694.28;4968797;28;113540;-73
2022/10/06 07:04:38;;;;;;;9.90;2.17;;;;;;;15.28;57.17;102700.31;4923194;28;113967;-73
2022/10/06 07:07:10;;;;;;;9.38;2.13;;;;;;;15.32;57.04;102704.63;4941688;28;124124;-72
2022/10/06 07:09:37;;;;;;;10.77;2.30;;;;;;;15.36;56.99;102711.59;4948594;28;122783;-72
2022/10/06 07:12:10;;;;;;;13.82;2.10;;;;;;;15.42;57.00;102709.66;4942749;28;114810;-73
2022/10/06 07:25:05;;;;;;;9.50;1.90;;;;;;;15.46;56.99;102712.13;4947937;28;115031;-72
2022/10/06 07:25:45;;;;;;;10.00;1.90;;;;;;;15.59;56.82;102731.28;4950671;28;113869;-72
2022/10/06 07:28:15;;;;;;;9.27;2.10;;;;;;;15.62;56.71;102739.19;4937841;28;123572;-72
2022/10/06 07:30:43;;;;;;;9.27;1.85;;;;;;;15.67;56.65;102737.22;4951417;28;125311;-73
2022/10/06 07:33:17;;;;;;;16.90;2.40;;;;;;;15.71;56.58;102746.88;4946692;28;113420;-72
2022/10/06 07:35:45;;;;;;;13.60;2.53;;;;;;;15.77;56.44;102754.69;4960877;28;114460;-72
2022/10/06 07:38:15;;;;;;;12.50;2.05;;;;;;;15.82;56.40;102759.00;4950644;28;123437;-72
2022/10/06 07:40:52;;;;;;;8.40;1.90;;;;;;;15.86;56.38;102768.63;4940493;28;123764;-72
2022/10/06 07:43:39;;;;;;;7.38;1.67;;;;;;;15.91;56.27;102769.34;4938028;28;113897;-72
2022/10/06 07:46:10;;;;;;;14.25;2.40;;;;;;;15.94;56.19;102771.91;4951291;28;113255;-73
2022/10/06 07:48:42;;;;;;;8.30;1.70;;;;;;;15.98;56.29;102778.03;4967441;28;123937;-73
2022/10/06 07:51:17;;;;;;;11.05;2.13;;;;;;;16.01;56.17;102789.47;4951026;28;122923;-73
2022/10/06 07:53:49;;;;;;;15.20;2.92;;;;;;;16.07;56.23;102783.91;4944968;28;113670;-73
2022/10/06 07:56:45;;;;;;;17.80;3.03;;;;;;;16.11;56.08;102790.88;4943828;28;114613;-72
2022/10/06 07:59:12;;;;;;;15.63;3.17;;;;;;;16.17;56.20;102795.09;4971977;28;124642;-73
2022/10/06 08:01:39;;;;;;;15.05;2.38;;;;;;;16.20;55.79;102794.09;4972595;28;124225;-72
2022/10/06 08:04:06;;;;;;;10.13;2.42;;;;;;;16.24;55.76;102790.41;4972311;28;115667;-72
2022/10/06 08:06:33;;;;;;;14.10;2.55;;;;;;;16.29;55.50;102799.13;4971965;28;114898;-73
2022/10/06 08:09:00;;;;;;;18.00;2.67;;;;;;;16.35;55.51;102798.91;4972092;28;123914;-73
2022/10/06 08:11:27;;;;;;;18.73;2.78;;;;;;;16.40;55.63;102807.59;4940654;28;124650;-73
2022/10/06 08:13:55;;;;;;;14.93;2.40;;;;;;;16.44;55.53;102805.69;4962533;28;114315;-72
2022/10/06 08:16:28;;;;;;;13.93;3.00;;;;;;;16.47;55.36;102803.78;4935360;28;113019;-73
2022/10/06 08:18:58;;;;;;;14.43;2.65;;;;;;;16.54;55.42;102809.75;4970815;28;123995;-73
2022/10/06 08:21:27;;;;;;;10.60;2.45;;;;;;;16.60;55.24;102808.66;4971288;28;123616;-72
2022/10/06 08:23:56;;;;;;;15.55;2.92;;;;;;;16.66;55.31;102808.41;4954800;28;114799;-73
2022/10/06 08:26:26;;;;;;;10.55;2.58;;;;;;;16.74;55.25;102817.00;4971536;28;114128;-72
2022/10/06 08:28:59;;;;;;;14.73;2.83;;;;;;;16.82;55.33;102820.28;4971287;28;123659;-72
2022/10/06 08:31:26;;;;;;;11.95;2.83;;;;;;;16.92;55.23;102824.34;4969536;28;123855;-73
2022/10/06 08:33:55;;;;;;;14.20;2.83;;;;;;;17.01;54.83;102824.88;4962562;28;114416;-72
2022/10/06 08:36:26;;;;;;;18.63;3.03;;;;;;;17.09;54.83;102828.13;4961042;28;113658;-72
2022/10/06 08:38:58;;;;;;;14.57;2.60;;;;;;;17.17;54.89;102835.84;4953846;28;123911;-73
2022/10/06 08:41:37;;;;;;;11.05;2.85;;;;;;;17.23;54.42;102836.47;4971477;28;124517;-73
2022/10/06 08:44:07;;;;;;;13.25;2.67;;;;;;;17.31;54.43;102839.72;4961136;28;113849;-73
2022/10/06 08:46:43;;;;;;;11.93;2.60;;;;;;;17.39;54.46;102854.59;4954010;28;113540;-72
2022/10/06 08:49:16;;;;;;;15.23;2.67;;;;;;;17.46;54.04;102854.28;4970361;28;123681;-72
2022/10/06 08:51:59;;;;;;;12.52;2.83;;;;;;;17.51;53.83;102862.09;4940499;28;124112;-72
2022/10/06 08:55:05;;;;;;;10.82;2.13;;;;;;;17.57;53.90;102853.81;4949627;28;114524;-73
2022/10/06 08:57:47;;;;;;;11.18;2.97;;;;;;;17.65;53.79;102857.03;4968652;28;113346;-72
2022/10/06 09:00:16;;;;;;;12.70;2.40;;;;;;;17.75;53.73;102864.69;4952590;28;123795;-72
2022/10/06 09:02:49;;;;;;;15.77;2.80;;;;;;;17.83;53.70;102866.09;4968485;28;124089;-73
2022/10/06 09:05:24;;;;;;;9.07;2.00;;;;;;;17.91;53.35;102865.78;4954358;28;114542;-72
2022/10/06 09:08:15;;;;;;;10.00;2.42;;;;;;;17.96;53.24;102873.63;4952512;28;112810;-73
2022/10/06 09:11:00;;;;;;;11.35;2.40;;;;;;;18.01;52.86;102877.88;4968882;28;125229;-73
2022/10/06 09:13:36;;;;;;;10.45;2.53;;;;;;;18.07;52.76;102882.94;4969209;28;123839;-72
2022/10/06 09:16:17;;;;;;;10.27;1.80;;;;;;;18.15;52.80;102884.44;4953400;28;113432;-72
2022/10/06 09:18:54;;;;;;;13.05;2.17;;;;;;;18.23;52.78;102882.25;4940631;28;114328;-72
2022/10/06 09:21:46;;;;;;;10.65;2.30;;;;;;;18.34;52.55;102890.69;4936712;28;123060;-72
2022/10/06 09:24:27;;;;;;;12.20;2.20;;;;;;;18.43;52.33;102895.66;4959625;28;123804;-72
2022/10/06 09:26:57;;;;;;;12.20;2.50;;;;;;;18.49;52.14;102895.34;4953202;28;114051;-73
2022/10/06 09:29:26;;;;;;;11.70;1.98;;;;;;;18.56;52.10;102900.47;4953741;28;113034;-73
2022/10/06 09:31:53;;;;;;;12.60;2.35;;;;;;;18.64;51.93;102895.59;4952907;28;123630;-73
2022/10/06 09:34:34;;;;;;;12.27;2.20;;;;;;;18.70;51.85;102903.38;4972162;28;124196;-73
2022/10/06 09:37:06;;;;;;;12.45;2.42;;;;;;;18.77;51.76;102896.78;4942788;28;114466;-73
2022/10/06 09:39:36;;;;;;;12.07;2.30;;;;;;;18.85;51.30;102902.72;4970741;28;114188;-72
2022/10/06 09:42:17;;;;;;;12.25;2.50;;;;;;;18.90;51.24;102898.94;4964047;28;123226;-73
2022/10/06 09:45:02;;;;;;;12.45;2.28;;;;;;;18.97;51.28;102900.38;4947584;28;123638;-73
2022/10/06 09:47:43;;;;;;;13.85;2.50;;;;;;;19.01;50.91;102901.97;4970389;28;115125;-73
2022/10/06 09:50:19;;;;;;;9.55;1.77;;;;;;;19.03;50.65;102905.44;4970266;28;114659;-73
2022/10/06 09:53:03;;;;;;;12.93;1.80;;;;;;;19.05;50.69;102909.78;4968786;28;124878;-72
2022/10/06 09:55:36;;;;;;;9.60;2.00;;;;;;;19.11;50.39;102903.25;4953780;28;123173;-73
2022/10/06 09:58:18;;;;;;;8.93;1.77;;;;;;;19.17;50.16;102912.84;4952183;28;113527;-73
2022/10/06 10:00:52;;;;;;;12.35;2.17;;;;;;;19.22;50.42;102906.28;4939397;28;113669;-73
2022/10/06 10:03:20;;;;;;;10.00;2.20;;;;;;;19.30;49.87;102910.44;4939438;28;123492;-73
2022/10/06 10:05:58;;;;;;;10.85;2.03;;;;;;;19.34;49.78;102914.69;4957837;28;124797;-73
2022/10/06 10:08:29;;;;;;;8.75;1.60;;;;;;;19.39;49.55;102918.03;4968269;28;114266;-73
2022/10/06 10:13:56;;;;;;;13.93;2.13;;;;;;;19.53;49.63;102915.53;4951807;28;123545;-72
2022/10/06 10:16:33;;;;;;;10.15;1.95;;;;;;;19.60;49.33;102911.59;4953176;28;123696;-72
2022/10/06 10:19:04;;;;;;;9.40;1.75;;;;;;;19.66;49.43;102915.78;4959451;28;114797;-73
2022/10/06 10:21:33;;;;;;;11.38;2.00;;;;;;;19.76;49.29;102924.28;4968353;28;113654;-73
2022/10/06 10:24:05;;;;;;;11.65;2.13;;;;;;;19.84;48.91;102914.88;4952000;28;123468;-73
2022/10/06 10:26:52;;;;;;;10.80;2.08;;;;;;;19.91;48.77;102917.25;4955935;28;124686;-73
2022/10/06 10:29:41;;;;;;;7.90;2.00;;;;;;;19.97;48.91;102914.25;4973838;28;114029;-73
2022/10/06 10:32:16;;;;;;;8.48;2.10;;;;;;;20.05;48.43;102917.41;4958378;28;113643;-74
2022/10/06 10:34:55;;;;;;;10.10;2.22;;;;;;;20.13;48.61;102922.41;4965511;28;123861;-73
2022/10/06 10:37:45;;;;;;;7.38;1.77;;;;;;;20.15;48.22;102912.41;4961100;28;124502;-73
2022/10/06 10:40:28;;;;;;;9.30;2.13;;;;;;;20.19;48.14;102914.00;4949220;28;116577;-73
2022/10/06 10:43:07;;;;;;;12.30;2.28;;;;;;;20.24;48.22;102917.31;4967056;28;115097;-73
2022/10/06 10:45:38;;;;;;;9.23;1.52;;;;;;;20.29;47.52;102909.88;4968311;28;124415;-73
2022/10/06 10:48:14;;;;;;;9.05;1.90;;;;;;;20.29;47.10;102914.41;4949255;28;124158;-73
2022/10/06 10:50:41;;;;;;;8.70;2.13;;;;;;;20.30;47.29;102914.28;4952166;28;113361;-73
2022/10/06 10:53:45;;;;;;;8.95;1.80;;;;;;;20.34;47.36;102918.59;4970245;28;114176;-73
2022/10/06 10:56:15;;;;;;;6.75;1.80;;;;;;;20.39;46.94;102921.88;4965286;28;124160;-74
2022/10/06 10:58:44;;;;;;;8.05;1.73;;;;;;;20.43;46.54;102928.84;4957724;28;123777;-73
2022/10/06 11:01:36;;;;;;;13.30;1.90;;;;;;;20.42;46.75;102916.34;4967999;28;114847;-74
2022/10/06 11:04:09;;;;;;;10.93;2.17;;;;;;;20.41;46.40;102919.97;4952167;28;112315;-74
2022/10/06 11:06:58;;;;;;;9.70;2.08;;;;;;;20.40;46.46;102923.63;4969601;28;124302;-74
2022/10/06 11:09:39;;;;;;;7.43;1.60;;;;;;;20.40;46.39;102923.63;4968838;28;123856;-74
2022/10/06 11:12:12;;;;;;;7.65;1.67;;;;;;;20.42;46.40;102921.72;4966427;28;114114;-74
2022/10/06 11:14:49;;;;;;;9.40;1.90;;;;;;;20.48;46.08;102922.34;4944323;28;113757;-75
2022/10/06 11:17:38;;;;;;;7.65;1.92;;;;;;;20.50;45.97;102928.53;4966285;28;123886;-73
2022/10/06 11:20:19;;;;;;;6.68;2.15;;;;;;;20.49;45.34;102932.16;4968225;28;124226;-74
2022/10/06 11:22:55;;;;;;;7.28;1.83;;;;;;;20.49;45.48;102926.78;4968339;28;115461;-74
2022/10/06 11:25:42;;;;;;;9.20;1.70;;;;;;;20.53;45.68;102928.34;4965339;28;112957;-74
2022/10/06 11:28:18;;;;;;;9.13;1.65;;;;;;;20.58;45.57;102926.28;4944621;28;123164;-74
2022/10/06 11:30:55;;;;;;;7.50;1.80;;;;;;;20.64;45.41;102931.34;4970690;28;124322;-74
2022/10/06 11:33:57;;;;;;;7.43;1.88;;;;;;;20.68;45.33;102927.56;4965399;28;115099;-74
2022/10/06 11:36:45;;;;;;;7.82;1.98;;;;;;;20.71;45.23;102932.75;4966816;28;115149;-74
2022/10/06 11:39:30;;;;;;;7.78;1.63;;;;;;;20.77;45.33;102926.16;4966161;28;124164;-73
2022/10/06 11:42:11;;;;;;;8.07;2.15;;;;;;;20.85;45.04;102923.06;4945343;28;123737;-73
2022/10/06 11:44:43;;;;;;;9.63;1.80;;;;;;;20.93;44.85;102927.06;4965537;28;114595;-73
2022/10/06 11:47:20;;;;;;;7.78;1.90;;;;;;;21.02;44.88;102924.81;4963435;28;114104;-73